Severnoe, Russia
Current Conditions -  °F | °C
As of 9:30 PM on Friday 31 Oct 2014 (Local Time) from UNNT Reporting Station
Overcast Overcast  
Wind Chill: 29°   Ceiling: 2800
Heat Index: 36°   Visibility: 6mi
Dew Point: 32°   Wind: 9mph
Humidity: 87%   Direction: 210°SSW
Pressure: 30.27"   Gusts: NA
Location:  56.35°N, 78.35°E
Report Text: UNNT 311430Z 21004MPS 9999 OVC028 02/00 Q1025 25290150 16290150NOSIG RMK QFE759/1012
Loading
Personal Weather Stations






























Interactive Weather Map
Tropical Storm Tracking
New forecast layout! Learn more

10-Day Weather Forecast

Advertisements
Track Severe Weather on mobile